Terminal Aerodrome Forecast
Issued by NWS

Home | Current Version | Previous Version | Text Only | Print | Product List | Glossary On
Versions: 1 2 3 4 5 6 7 8 9 10 11 12 13 14 15 16 17 18 19
000
FTUS46 KPDT 310500
TAFYKM
TAF
KYKM 310525Z 3106/0106 27006KT 5SM -RA BR OVC040
     FM311800 26007KT P6SM -SHRA OVC060
     FM312200 27007KT P6SM BKN060=

USA.gov is the U.S. government's official web portal to all federal, state and local government web resources and services.